createdAt,value
2019-03-17T00:02:11.463Z,30.90
2019-03-17T00:04:41.258Z,30.90
2019-03-17T00:07:11.205Z,30.90
2019-03-17T00:09:40.992Z,30.90
2019-03-17T00:12:10.785Z,31.00
2019-03-17T00:14:40.886Z,30.90
2019-03-17T00:17:10.755Z,30.90
2019-03-17T00:19:40.546Z,30.90
2019-03-17T00:22:10.632Z,30.90
2019-03-17T00:24:40.503Z,30.90
2019-03-17T00:27:10.299Z,30.90
2019-03-17T00:29:40.842Z,31.00
2019-03-17T00:32:11.770Z,30.90
2019-03-17T00:34:44.292Z,30.90
2019-03-17T00:37:13.194Z,30.90
2019-03-17T00:39:44.798Z,30.80
2019-03-17T00:42:14.588Z,30.90
2019-03-17T00:44:45.451Z,30.90
2019-03-17T00:47:15.251Z,30.80
2019-03-17T00:49:45.126Z,30.80
2019-03-17T00:52:14.979Z,30.80
2019-03-17T00:54:44.815Z,31.50
2019-03-17T00:57:14.616Z,30.80
2019-03-17T00:59:45.138Z,30.80
2019-03-17T01:02:15.003Z,30.90
2019-03-17T01:04:55.725Z,30.80
2019-03-17T01:07:16.350Z,30.80
2019-03-17T01:09:46.150Z,30.80
2019-03-17T01:12:16.032Z,30.90
2019-03-17T01:14:46.003Z,30.90
2019-03-17T01:17:15.808Z,30.90
2019-03-17T01:19:45.589Z,30.80
2019-03-17T01:22:15.402Z,30.80
2019-03-17T01:24:45.300Z,30.80
2019-03-17T01:27:15.103Z,30.80
2019-03-17T01:29:44.926Z,30.90
2019-03-17T01:32:17.509Z,30.80
2019-03-17T01:34:47.306Z,30.80
2019-03-17T01:37:17.250Z,30.80
2019-03-17T01:39:47.871Z,30.80
2019-03-17T01:42:18.576Z,30.80
2019-03-17T01:44:48.604Z,30.80
2019-03-17T01:47:18.489Z,30.90
2019-03-17T01:49:48.355Z,30.80
2019-03-17T01:52:18.163Z,30.90
2019-03-17T01:54:47.976Z,30.80
2019-03-17T01:57:17.807Z,30.80
2019-03-17T01:59:47.603Z,30.80
2019-03-17T02:02:17.918Z,30.80
2019-03-17T02:04:47.710Z,30.80
2019-03-17T02:07:17.578Z,30.80
2019-03-17T02:09:47.591Z,30.80
2019-03-17T02:12:17.391Z,30.80
2019-03-17T02:14:47.186Z,30.80
2019-03-17T02:17:16.986Z,30.80
2019-03-17T02:19:46.793Z,30.80
2019-03-17T02:22:16.585Z,30.80
2019-03-17T02:24:46.743Z,30.80
2019-03-17T02:27:16.563Z,30.80
2019-03-17T02:29:46.350Z,30.70
2019-03-17T02:32:17.326Z,30.80
2019-03-17T02:34:47.886Z,30.80
2019-03-17T02:37:17.682Z,30.80
2019-03-17T02:39:47.535Z,30.90
2019-03-17T02:42:18.166Z,30.80
2019-03-17T02:44:47.991Z,30.80
2019-03-17T02:47:17.834Z,30.80
2019-03-17T02:49:47.618Z,31.20
2019-03-17T02:52:17.390Z,30.80
2019-03-17T02:54:47.167Z,30.70
2019-03-17T02:57:16.970Z,30.70
2019-03-17T02:59:46.775Z,30.70
2019-03-17T03:02:16.555Z,30.70
2019-03-17T03:04:46.812Z,30.70
2019-03-17T03:07:16.591Z,30.80
2019-03-17T03:09:46.376Z,30.70
2019-03-17T03:12:16.165Z,30.70
2019-03-17T03:14:45.967Z,31.20
2019-03-17T03:17:15.743Z,30.70
2019-03-17T03:19:45.511Z,30.70
2019-03-17T03:22:15.713Z,30.80
2019-03-17T03:24:46.538Z,30.80
2019-03-17T03:27:16.315Z,30.70
2019-03-17T03:29:46.093Z,30.70
2019-03-17T03:32:16.001Z,30.80
2019-03-17T03:34:46.483Z,30.80
2019-03-17T03:37:16.272Z,30.70
2019-03-17T03:39:46.073Z,30.70
2019-03-17T03:42:15.857Z,30.70
2019-03-17T03:44:45.607Z,30.70
2019-03-17T03:47:15.654Z,30.70
2019-03-17T03:49:45.474Z,30.70
2019-03-17T03:52:15.249Z,30.70
2019-03-17T03:54:45.075Z,30.70
2019-03-17T03:57:14.830Z,30.60
2019-03-17T03:59:44.676Z,30.70
2019-03-17T04:02:14.530Z,30.70
2019-03-17T04:04:44.347Z,31.20
2019-03-17T04:07:15.374Z,30.60
2019-03-17T04:09:46.013Z,30.70
2019-03-17T04:12:15.794Z,30.70
2019-03-17T04:14:45.650Z,30.60
2019-03-17T04:17:15.435Z,30.60
2019-03-17T04:19:45.250Z,30.60
2019-03-17T04:22:15.074Z,30.60
2019-03-17T04:24:44.921Z,30.60
2019-03-17T04:27:15.310Z,30.60
2019-03-17T04:29:45.094Z,30.60
2019-03-17T04:32:16.566Z,30.60
2019-03-17T04:34:47.387Z,30.60
2019-03-17T04:37:17.171Z,30.60
2019-03-17T04:39:46.948Z,30.60
2019-03-17T04:42:16.743Z,30.50
2019-03-17T04:44:46.510Z,30.50
2019-03-17T04:47:16.283Z,30.60
2019-03-17T04:49:46.792Z,30.50
2019-03-17T04:52:16.630Z,30.60
2019-03-17T04:54:47.202Z,30.60
2019-03-17T04:57:17.070Z,30.60
2019-03-17T04:59:46.843Z,30.50
2019-03-17T05:02:16.639Z,30.50
2019-03-17T05:04:46.413Z,30.50
2019-03-17T05:07:16.189Z,30.40
2019-03-17T05:09:45.982Z,30.50
2019-03-17T05:12:16.134Z,30.50
2019-03-17T05:14:45.983Z,30.50
2019-03-17T05:17:15.764Z,30.50
2019-03-17T05:19:45.530Z,31.00
2019-03-17T05:22:15.314Z,30.50
2019-03-17T05:24:45.163Z,30.40
2019-03-17T05:27:14.946Z,31.00
2019-03-17T05:29:44.718Z,30.50
2019-03-17T05:32:15.258Z,30.50
2019-03-17T05:34:45.334Z,30.40
2019-03-17T05:37:15.119Z,30.40
2019-03-17T05:39:44.895Z,30.40
2019-03-17T05:42:14.683Z,30.40
2019-03-17T05:44:45.434Z,30.40
2019-03-17T05:47:15.642Z,30.40
2019-03-17T05:49:45.421Z,30.40
2019-03-17T05:52:15.261Z,30.40
2019-03-17T05:54:45.063Z,30.50
2019-03-17T05:57:15.213Z,30.40
2019-03-17T05:59:44.986Z,30.40
2019-03-17T06:02:14.770Z,30.40
2019-03-17T06:04:44.538Z,30.30
2019-03-17T06:07:18.823Z,30.70
2019-03-17T06:09:46.104Z,30.30
2019-03-17T06:12:15.945Z,30.30
2019-03-17T06:14:45.714Z,30.30
2019-03-17T06:17:15.578Z,30.40
2019-03-17T06:19:45.347Z,30.30
2019-03-17T06:22:15.164Z,30.30
2019-03-17T06:24:45.056Z,30.30
2019-03-17T06:27:14.819Z,30.40
2019-03-17T06:29:46.447Z,30.30
2019-03-17T06:32:18.051Z,30.30
2019-03-17T06:34:48.686Z,30.30
2019-03-17T06:37:30.275Z,30.30
2019-03-17T06:39:49.946Z,30.30
2019-03-17T06:42:19.723Z,30.30
2019-03-17T06:44:49.567Z,30.30
2019-03-17T06:47:19.374Z,30.30
2019-03-17T06:49:49.154Z,30.20
2019-03-17T06:52:18.933Z,30.20
2019-03-17T06:54:49.078Z,30.20
2019-03-17T06:57:18.906Z,30.20
2019-03-17T06:59:48.681Z,30.30
2019-03-17T07:02:18.503Z,30.30
2019-03-17T07:04:48.341Z,30.30
2019-03-17T07:07:18.219Z,30.30
2019-03-17T07:09:47.998Z,30.20
2019-03-17T07:12:17.819Z,30.20
2019-03-17T07:14:47.597Z,30.30
2019-03-17T07:17:19.380Z,30.20
2019-03-17T07:19:50.443Z,30.20
2019-03-17T07:22:20.222Z,30.20
2019-03-17T07:24:50.070Z,30.20
2019-03-17T07:27:19.859Z,30.20
2019-03-17T07:29:49.654Z,30.20
2019-03-17T07:32:19.844Z,30.40
2019-03-17T07:34:50.691Z,30.20
2019-03-17T07:37:21.889Z,30.20
2019-03-17T07:39:51.663Z,30.20
2019-03-17T07:42:21.438Z,30.20
2019-03-17T07:44:51.229Z,30.20
2019-03-17T07:47:21.007Z,30.20
2019-03-17T07:49:50.774Z,30.20
2019-03-17T07:52:20.647Z,30.20
2019-03-17T07:54:50.427Z,30.20
2019-03-17T07:57:20.198Z,30.50
2019-03-17T07:59:49.979Z,30.20
2019-03-17T08:02:19.752Z,30.20
2019-03-17T08:04:49.797Z,30.70
2019-03-17T08:07:21.108Z,30.20
2019-03-17T08:09:51.032Z,30.10
2019-03-17T08:12:20.804Z,30.10
2019-03-17T08:14:50.686Z,30.10
2019-03-17T08:17:20.471Z,30.10
2019-03-17T08:19:50.243Z,30.10
2019-03-17T08:22:20.091Z,30.10
2019-03-17T08:24:49.980Z,30.10
2019-03-17T08:27:19.762Z,30.10
2019-03-17T08:29:49.928Z,30.10
2019-03-17T08:32:20.637Z,30.10
2019-03-17T08:34:52.531Z,30.10
2019-03-17T08:37:22.650Z,30.10
2019-03-17T08:39:53.269Z,30.10
2019-03-17T08:42:23.120Z,30.10
2019-03-17T08:44:52.969Z,30.10
2019-03-17T08:47:22.831Z,30.10
2019-03-17T08:49:52.644Z,30.10
2019-03-17T08:52:22.500Z,30.10
2019-03-17T08:54:52.559Z,30.00
2019-03-17T08:57:22.330Z,30.10
2019-03-17T08:59:52.106Z,30.00
2019-03-17T09:02:22.915Z,30.10
2019-03-17T09:04:53.291Z,30.10
2019-03-17T09:07:23.063Z,30.00
2019-03-17T09:09:52.845Z,30.10
2019-03-17T09:12:22.663Z,30.10
2019-03-17T09:14:52.511Z,30.00
2019-03-17T09:17:22.503Z,30.10
2019-03-17T09:19:52.346Z,30.00
2019-03-17T09:22:22.203Z,30.00
2019-03-17T09:24:52.353Z,30.00
2019-03-17T09:27:22.125Z,30.10
2019-03-17T09:29:51.906Z,30.00
2019-03-17T09:32:23.734Z,30.10
2019-03-17T09:34:54.782Z,30.00
2019-03-17T09:37:25.817Z,30.00
2019-03-17T09:39:55.607Z,30.00
2019-03-17T09:42:25.394Z,30.00
2019-03-17T09:44:55.187Z,30.00
2019-03-17T09:47:24.965Z,30.00
2019-03-17T09:49:54.746Z,30.00
2019-03-17T09:52:24.895Z,30.00
2019-03-17T09:54:54.723Z,30.00
2019-03-17T09:57:24.498Z,30.00
2019-03-17T09:59:55.800Z,30.00
2019-03-17T10:02:26.926Z,30.00
2019-03-17T10:04:56.770Z,30.00
2019-03-17T10:07:26.550Z,30.00
2019-03-17T10:09:56.358Z,30.10
2019-03-17T10:12:26.166Z,30.00
2019-03-17T10:14:55.952Z,30.00
2019-03-17T10:17:25.718Z,30.00
2019-03-17T10:19:55.558Z,30.00
2019-03-17T10:22:25.827Z,30.00
2019-03-17T10:24:55.611Z,30.00
2019-03-17T10:27:25.418Z,30.10
2019-03-17T10:29:55.278Z,30.00
2019-03-17T10:32:27.632Z,30.00
2019-03-17T10:34:57.470Z,30.00
2019-03-17T10:37:28.462Z,30.10
2019-03-17T10:39:58.235Z,30.00
2019-03-17T10:42:28.010Z,30.00
2019-03-17T10:44:58.426Z,30.00
2019-03-17T10:47:29.845Z,30.10
2019-03-17T10:49:59.642Z,30.10
2019-03-17T10:52:29.419Z,30.10
2019-03-17T10:54:59.187Z,30.10
2019-03-17T10:57:28.971Z,30.10
2019-03-17T10:59:59.678Z,30.10
2019-03-17T11:02:29.450Z,30.10
2019-03-17T11:04:59.798Z,30.10
2019-03-17T11:07:29.603Z,30.10
2019-03-17T11:09:59.448Z,30.10
2019-03-17T11:12:29.263Z,30.10
2019-03-17T11:14:59.049Z,30.10
2019-03-17T11:17:28.819Z,30.70
2019-03-17T11:19:58.612Z,30.10
2019-03-17T11:22:28.494Z,30.70
2019-03-17T11:24:58.365Z,30.20
2019-03-17T11:27:28.414Z,30.20
2019-03-17T11:29:58.199Z,30.20
2019-03-17T11:32:30.694Z,30.20
2019-03-17T11:35:00.500Z,30.20
2019-03-17T11:37:30.283Z,30.20
2019-03-17T11:40:01.879Z,30.20
2019-03-17T11:42:31.655Z,30.20
2019-03-17T11:45:01.508Z,30.20
2019-03-17T11:47:31.282Z,30.20
2019-03-17T11:50:01.126Z,30.20
2019-03-17T11:52:30.970Z,30.20
2019-03-17T11:55:01.330Z,30.20
2019-03-17T11:57:31.203Z,30.20
2019-03-17T12:00:01.003Z,30.20
2019-03-17T12:02:31.314Z,30.20
2019-03-17T12:05:01.089Z,30.20
2019-03-17T12:07:31.021Z,30.20
2019-03-17T12:10:00.821Z,30.20
2019-03-17T12:12:30.662Z,30.20
2019-03-17T12:15:00.646Z,30.20
2019-03-17T12:17:30.432Z,30.20
2019-03-17T12:20:00.395Z,30.20
2019-03-17T12:22:30.339Z,30.20
2019-03-17T12:25:00.895Z,30.20
2019-03-17T12:27:33.002Z,30.20
2019-03-17T12:30:03.237Z,30.20
2019-03-17T12:32:34.738Z,30.20
2019-03-17T12:35:05.941Z,30.20
2019-03-17T12:37:35.710Z,30.20
2019-03-17T12:40:06.769Z,30.20
2019-03-17T12:42:36.562Z,30.20
2019-03-17T12:45:06.668Z,30.20
2019-03-17T12:47:37.499Z,30.20
2019-03-17T12:50:08.110Z,30.30
2019-03-17T12:52:37.908Z,30.10
2019-03-17T12:55:08.170Z,30.10
2019-03-17T12:57:38.017Z,30.10
2019-03-17T13:00:11.018Z,30.10
2019-03-17T13:02:40.834Z,30.10
2019-03-17T13:05:11.613Z,30.10
2019-03-17T13:07:41.430Z,30.10
2019-03-17T13:10:16.009Z,30.10
2019-03-17T13:12:44.823Z,30.20
2019-03-17T13:15:17.507Z,30.10
2019-03-17T13:17:47.426Z,30.10
2019-03-17T13:20:17.289Z,30.10
2019-03-17T13:22:47.158Z,30.10
2019-03-17T13:25:17.242Z,30.10
2019-03-17T13:27:47.089Z,30.20
2019-03-17T13:30:17.062Z,30.20
2019-03-17T13:32:47.571Z,30.20
2019-03-17T13:35:19.867Z,30.20
2019-03-17T13:37:49.635Z,30.20
2019-03-17T13:40:28.677Z,30.20
2019-03-17T13:42:52.062Z,30.30
2019-03-17T13:45:21.880Z,30.30
2019-03-17T13:47:53.057Z,30.20
2019-03-17T13:50:23.362Z,30.20
2019-03-17T13:52:53.222Z,30.20
2019-03-17T13:55:22.995Z,30.20
2019-03-17T13:57:54.829Z,30.30
2019-03-17T14:00:24.744Z,30.20
2019-03-17T14:02:55.474Z,30.20
2019-03-17T14:05:27.143Z,30.30
2019-03-17T14:07:57.066Z,30.30
2019-03-17T14:10:26.978Z,30.20
2019-03-17T14:12:56.753Z,30.30
2019-03-17T14:15:26.554Z,30.20
2019-03-17T14:17:56.421Z,30.20
2019-03-17T14:20:26.210Z,30.20
2019-03-17T14:22:56.046Z,30.10
2019-03-17T14:25:26.463Z,30.20
2019-03-17T14:27:56.310Z,30.20
2019-03-17T14:30:26.158Z,30.20
2019-03-17T14:32:56.538Z,30.30
2019-03-17T14:35:27.450Z,30.20
2019-03-17T14:37:57.355Z,30.20
2019-03-17T14:40:27.288Z,30.20
2019-03-17T14:42:58.646Z,30.20
2019-03-17T14:45:28.508Z,30.20
2019-03-17T14:47:58.270Z,30.10
2019-03-17T14:50:28.083Z,30.10
2019-03-17T14:53:00.606Z,30.10
2019-03-17T14:55:29.335Z,30.10
2019-03-17T14:57:59.154Z,30.10
2019-03-17T15:00:30.273Z,30.10
2019-03-17T15:03:01.940Z,30.10
2019-03-17T15:05:31.717Z,30.10
2019-03-17T15:08:01.498Z,30.10
2019-03-17T15:10:31.277Z,30.10
2019-03-17T15:13:01.132Z,30.10
2019-03-17T15:15:30.978Z,30.00
2019-03-17T15:18:00.753Z,30.10
2019-03-17T15:20:31.026Z,30.00
2019-03-17T15:23:00.806Z,30.10
2019-03-17T15:25:30.654Z,30.00
2019-03-17T15:28:00.450Z,30.10
2019-03-17T15:30:30.311Z,30.10
2019-03-17T15:33:01.215Z,30.00
2019-03-17T15:35:31.896Z,30.00
2019-03-17T15:38:01.681Z,30.00
2019-03-17T15:40:31.527Z,30.00
2019-03-17T15:43:02.893Z,30.00
2019-03-17T15:45:32.778Z,30.00
2019-03-17T15:48:04.189Z,30.00
2019-03-17T15:50:34.032Z,30.00
2019-03-17T15:53:03.921Z,30.00
2019-03-17T15:55:33.840Z,30.00
2019-03-17T15:58:05.686Z,30.00
2019-03-17T16:00:35.714Z,30.00
2019-03-17T16:03:05.484Z,30.00
2019-03-17T16:05:35.377Z,30.00
2019-03-17T16:08:05.302Z,30.00
2019-03-17T16:10:35.158Z,30.00
2019-03-17T16:13:05.027Z,30.00
2019-03-17T16:15:35.024Z,30.00
2019-03-17T16:18:04.958Z,30.00
2019-03-17T16:20:35.322Z,30.00
2019-03-17T16:23:05.107Z,30.00
2019-03-17T16:25:34.910Z,30.00
2019-03-17T16:28:04.821Z,30.00
2019-03-17T16:30:34.679Z,30.00
2019-03-17T16:33:06.742Z,30.00
2019-03-17T16:35:36.589Z,30.00
2019-03-17T16:38:06.442Z,30.00
2019-03-17T16:40:36.322Z,30.00
2019-03-17T16:43:07.220Z,30.00
2019-03-17T16:45:36.987Z,30.00
2019-03-17T16:48:08.687Z,30.00
2019-03-17T16:50:38.537Z,30.00
2019-03-17T16:53:08.307Z,30.00
2019-03-17T16:55:38.160Z,30.00
2019-03-17T16:58:08.086Z,30.00
2019-03-17T17:00:37.930Z,30.00
2019-03-17T17:03:07.710Z,30.00
2019-03-17T17:05:37.533Z,30.00
2019-03-17T17:08:07.302Z,30.00
2019-03-17T17:10:39.034Z,30.00
2019-03-17T17:13:09.062Z,29.90
2019-03-17T17:15:38.974Z,30.00
2019-03-17T17:18:08.755Z,30.00
2019-03-17T17:20:38.772Z,30.00
2019-03-17T17:23:08.628Z,30.00
2019-03-17T17:25:38.551Z,29.90
2019-03-17T17:28:08.321Z,29.90
2019-03-17T17:30:38.175Z,29.90
2019-03-17T17:33:08.449Z,29.90
2019-03-17T17:35:40.444Z,29.90
2019-03-17T17:38:10.218Z,29.90
2019-03-17T17:40:39.986Z,29.90
2019-03-17T17:43:10.140Z,29.90
2019-03-17T17:45:41.852Z,29.90
2019-03-17T17:48:11.624Z,29.90
2019-03-17T17:50:41.398Z,29.80
2019-03-17T17:53:11.205Z,29.90
2019-03-17T17:55:41.042Z,29.80
2019-03-17T17:58:10.818Z,29.80
2019-03-17T18:00:42.066Z,29.80
2019-03-17T18:03:11.990Z,29.80
2019-03-17T18:05:41.920Z,29.80
2019-03-17T18:08:12.915Z,29.90
2019-03-17T18:10:42.694Z,29.80
2019-03-17T18:13:12.611Z,29.80
2019-03-17T18:15:42.396Z,29.90
2019-03-17T18:18:12.250Z,29.80
2019-03-17T18:20:42.056Z,29.80
2019-03-17T18:23:17.885Z,29.80
2019-03-17T18:25:43.457Z,29.80
2019-03-17T18:28:13.466Z,29.80
2019-03-17T18:30:43.244Z,29.80
2019-03-17T18:33:14.259Z,29.80
2019-03-17T18:35:44.555Z,29.80
2019-03-17T18:38:14.359Z,29.70
2019-03-17T18:40:44.211Z,29.80
2019-03-17T18:43:15.221Z,29.80
2019-03-17T18:45:45.887Z,29.80
2019-03-17T18:48:15.662Z,29.80
2019-03-17T18:50:45.471Z,29.80
2019-03-17T18:53:15.265Z,29.80
2019-03-17T18:55:45.039Z,29.80
2019-03-17T18:58:14.823Z,29.80
2019-03-17T19:00:45.616Z,29.80
2019-03-17T19:03:15.409Z,29.80
2019-03-17T19:05:45.231Z,29.70
2019-03-17T19:08:15.058Z,29.80
2019-03-17T19:10:44.928Z,29.70
2019-03-17T19:13:14.699Z,29.80
2019-03-17T19:15:44.589Z,29.70
2019-03-17T19:18:14.434Z,29.70
2019-03-17T19:20:44.206Z,29.80
2019-03-17T19:23:14.246Z,29.80
2019-03-17T19:25:44.298Z,29.70
2019-03-17T19:28:16.537Z,29.70
2019-03-17T19:30:46.330Z,29.70
2019-03-17T19:33:18.522Z,29.70
2019-03-17T19:35:48.307Z,29.70
2019-03-17T19:38:18.118Z,29.70
2019-03-17T19:40:47.899Z,29.70
2019-03-17T19:43:17.732Z,29.70
2019-03-17T19:45:48.379Z,29.70
2019-03-17T19:48:18.189Z,29.70
2019-03-17T19:50:48.033Z,29.70
2019-03-17T19:53:18.116Z,29.70
2019-03-17T19:55:48.078Z,29.70
2019-03-17T19:58:17.867Z,29.70
2019-03-17T20:00:47.881Z,29.70
2019-03-17T20:03:17.726Z,29.70
2019-03-17T20:05:47.579Z,29.70
2019-03-17T20:08:17.358Z,29.70
2019-03-17T20:10:47.133Z,29.70
2019-03-17T20:13:16.906Z,29.70
2019-03-17T20:15:46.700Z,29.60
2019-03-17T20:18:16.525Z,29.70
2019-03-17T20:20:46.303Z,29.70
2019-03-17T20:23:16.496Z,29.70
2019-03-17T20:25:46.525Z,29.60
2019-03-17T20:28:17.353Z,29.60
2019-03-17T20:30:47.128Z,29.60
2019-03-17T20:33:18.613Z,29.60
2019-03-17T20:35:48.564Z,29.60
2019-03-17T20:38:18.347Z,29.60
2019-03-17T20:40:48.134Z,29.50
2019-03-17T20:43:29.019Z,29.50
2019-03-17T20:45:50.645Z,29.50
2019-03-17T20:48:20.516Z,29.50
2019-03-17T20:50:50.479Z,29.50
2019-03-17T20:53:20.263Z,29.50
2019-03-17T20:55:50.030Z,29.50
2019-03-17T20:58:19.891Z,29.50
2019-03-17T21:00:50.134Z,29.50
2019-03-17T21:03:20.020Z,29.40
2019-03-17T21:05:49.797Z,29.40
2019-03-17T21:08:19.580Z,29.40
2019-03-17T21:10:50.147Z,29.40
2019-03-17T21:13:21.551Z,29.80
2019-03-17T21:15:51.330Z,29.40
2019-03-17T21:18:21.116Z,29.40
2019-03-17T21:20:50.887Z,29.40
2019-03-17T21:23:20.666Z,29.40
2019-03-17T21:25:50.438Z,29.40
2019-03-17T21:28:20.545Z,29.40
2019-03-17T21:30:50.758Z,29.40
2019-03-17T21:33:21.563Z,29.40
2019-03-17T21:35:51.439Z,29.40
2019-03-17T21:38:21.210Z,29.40
2019-03-17T21:41:05.942Z,29.40
2019-03-17T21:43:22.475Z,29.40
2019-03-17T21:45:52.315Z,29.40
2019-03-17T21:48:22.762Z,29.30
2019-03-17T21:50:52.538Z,29.40
2019-03-17T21:53:22.323Z,29.30
2019-03-17T21:55:54.143Z,29.40
2019-03-17T21:58:23.642Z,29.40
2019-03-17T22:00:53.423Z,29.80
2019-03-17T22:03:23.200Z,29.40
2019-03-17T22:05:52.971Z,29.40
2019-03-17T22:08:22.946Z,29.30
2019-03-17T22:10:52.783Z,29.30
2019-03-17T22:13:23.618Z,29.30
2019-03-17T22:15:53.501Z,29.30
2019-03-17T22:18:23.297Z,29.40
2019-03-17T22:20:53.212Z,29.40
2019-03-17T22:23:23.117Z,29.40
2019-03-17T22:25:53.038Z,29.30
2019-03-17T22:28:22.975Z,29.30
2019-03-17T22:30:52.775Z,29.30
2019-03-17T22:33:23.343Z,29.30
2019-03-17T22:35:53.761Z,29.30
2019-03-17T22:38:23.552Z,29.30
2019-03-17T22:40:53.335Z,29.40
2019-03-17T22:43:23.110Z,29.30
2019-03-17T22:45:52.878Z,29.30
2019-03-17T22:48:23.428Z,29.30
2019-03-17T22:50:53.876Z,29.30
2019-03-17T22:53:23.666Z,29.30
2019-03-17T22:55:53.524Z,29.30
2019-03-17T22:58:23.290Z,29.30
2019-03-17T23:00:53.521Z,29.30
2019-03-17T23:03:23.985Z,29.30
2019-03-17T23:05:54.880Z,29.30
2019-03-17T23:08:24.675Z,29.30
2019-03-17T23:10:54.741Z,29.30
2019-03-17T23:13:24.522Z,29.30
2019-03-17T23:15:54.503Z,29.30
2019-03-17T23:18:24.275Z,29.30
2019-03-17T23:20:54.094Z,29.30
2019-03-17T23:23:23.878Z,29.30
2019-03-17T23:25:53.663Z,29.30
2019-03-17T23:28:23.470Z,29.30
2019-03-17T23:30:53.282Z,29.30
2019-03-17T23:33:23.735Z,29.30
2019-03-17T23:35:53.976Z,29.30
2019-03-17T23:38:23.745Z,29.30
2019-03-17T23:40:53.631Z,29.30
2019-03-17T23:43:23.394Z,29.30
2019-03-17T23:45:53.175Z,29.30
2019-03-17T23:48:23.061Z,29.30
2019-03-17T23:50:53.253Z,29.30
2019-03-17T23:53:23.043Z,29.70
2019-03-17T23:55:52.894Z,29.30
2019-03-17T23:58:22.673Z,29.20
